Time;durP1;ratioP1;P1;durP2;ratioP2;P2;SDS_P1;SDS_P2;PMS_P1;PMS_P2;Temp;Humidity;BMP_temperature;BMP_pressure;BME280_temperature;BME280_humidity;BME280_pressure;Samples;Min_cycle;Max_cycle;Signal;HPM_P1;HPM_P2
2022/01/27 05:35:29;;;;;;;10.00;1.58;;;26.00;66.10;;;;;;5063846;28;20051;-76
2022/01/27 05:37:57;;;;;;;8.23;1.92;;;26.00;65.10;;;;;;5036052;28;20058;-76
2022/01/27 05:40:24;;;;;;;7.35;2.30;;;26.00;65.20;;;;;;5070262;28;20054;-77
2022/01/27 05:42:51;;;;;;;14.25;2.35;;;25.90;65.20;;;;;;5026834;28;20037;-77
2022/01/27 05:45:18;;;;;;;5.32;1.63;;;25.90;65.60;;;;;;5032373;28;20476;-77
2022/01/27 05:47:46;;;;;;;11.07;1.95;;;25.90;66.10;;;;;;5050078;28;20063;-77
2022/01/27 05:50:13;;;;;;;6.55;1.67;;;25.90;65.20;;;;;;5053868;28;20479;-77
2022/01/27 05:52:40;;;;;;;9.02;1.98;;;25.90;66.20;;;;;;5051765;28;20091;-75
2022/01/27 05:55:08;;;;;;;6.05;1.63;;;26.00;66.30;;;;;;5054195;28;20037;-77
2022/01/27 05:57:35;;;;;;;7.22;1.70;;;26.00;67.00;;;;;;5053821;28;20499;-77
2022/01/27 06:00:03;;;;;;;8.40;1.80;;;26.10;67.10;;;;;;5035996;28;20044;-78
2022/01/27 06:02:30;;;;;;;6.22;1.90;;;26.20;66.70;;;;;;5036018;28;20028;-78
2022/01/27 06:04:58;;;;;;;9.45;3.35;;;26.30;66.30;;;;;;5054189;28;20029;-77
2022/01/27 06:07:25;;;;;;;21.27;5.47;;;26.40;65.90;;;;;;5050261;28;20029;-79
2022/01/27 06:09:52;;;;;;;13.82;5.13;;;26.60;65.50;;;;;;5050923;28;20063;-77
2022/01/27 06:12:19;;;;;;;14.13;10.02;;;26.80;64.90;;;;;;5053092;28;20029;-78
2022/01/27 06:14:46;;;;;;;28.40;24.08;;;26.80;64.20;;;;;;5044766;28;20037;-77
2022/01/27 06:17:13;;;;;;;94.70;85.05;;;26.80;64.00;;;;;;4996353;28;20026;-77
2022/01/27 06:19:44;;;;;;;117.70;86.88;;;26.80;65.00;;;;;;5020468;28;20041;-77
2022/01/27 06:22:12;;;;;;;42.63;37.10;;;26.80;64.90;;;;;;5033845;28;20380;-78
2022/01/27 06:24:43;;;;;;;14.32;6.38;;;26.80;64.50;;;;;;5033407;28;20083;-78
2022/01/27 06:27:11;;;;;;;16.58;7.10;;;26.80;64.20;;;;;;5024023;28;20064;-78
2022/01/27 06:29:38;;;;;;;16.67;11.85;;;26.80;65.00;;;;;;5026502;28;20045;-79
2022/01/27 06:32:06;;;;;;;17.42;11.38;;;26.80;65.20;;;;;;5050523;28;20115;-72
2022/01/27 06:34:33;;;;;;;12.52;8.68;;;26.80;64.10;;;;;;5048493;28;20204;-79
2022/01/27 06:37:00;;;;;;;10.52;7.50;;;26.80;64.30;;;;;;5040735;28;20029;-74
2022/01/27 06:39:27;;;;;;;7.72;3.83;;;26.80;63.90;;;;;;5035571;28;20033;-75
2022/01/27 06:41:55;;;;;;;8.63;4.20;;;26.70;64.00;;;;;;5047185;28;20383;-74
2022/01/27 06:44:22;;;;;;;8.55;2.97;;;26.60;63.40;;;;;;5041385;28;20395;-74
2022/01/27 06:46:49;;;;;;;6.25;2.38;;;26.50;63.50;;;;;;5049766;28;20041;-75
2022/01/27 06:49:17;;;;;;;8.32;2.17;;;26.50;63.20;;;;;;5053288;28;20352;-73
2022/01/27 06:51:47;;;;;;;7.80;2.40;;;26.50;63.60;;;;;;5050894;28;20032;-72
2022/01/27 06:54:16;;;;;;;7.63;1.83;;;26.40;62.80;;;;;;5047395;28;20041;-72
2022/01/27 06:56:44;;;;;;;7.47;2.60;;;26.30;62.80;;;;;;5042010;28;20029;-75
2022/01/27 06:59:11;;;;;;;5.93;1.70;;;26.30;63.10;;;;;;5052606;28;20036;-77
2022/01/27 07:01:41;;;;;;;8.00;2.05;;;26.30;63.90;;;;;;5049862;28;20033;-73
2022/01/27 07:04:08;;;;;;;5.35;1.63;;;26.20;63.50;;;;;;5035963;28;20059;-74
2022/01/27 07:06:36;;;;;;;5.22;1.50;;;26.20;63.60;;;;;;5047522;28;20033;-72
2022/01/27 07:09:04;;;;;;;6.68;1.85;;;26.10;63.20;;;;;;5036044;28;20087;-68
2022/01/27 07:11:31;;;;;;;3.45;1.33;;;26.00;63.40;;;;;;5036507;28;20112;-70
2022/01/27 07:13:58;;;;;;;13.98;3.90;;;26.00;63.90;;;;;;5051852;28;20045;-72
2022/01/27 07:16:26;;;;;;;8.30;3.13;;;26.00;64.00;;;;;;5020523;28;20030;-73
2022/01/27 07:18:53;;;;;;;19.50;3.53;;;26.00;63.90;;;;;;5050163;28;20033;-71
2022/01/27 07:21:20;;;;;;;6.05;2.05;;;26.10;64.40;;;;;;5052404;28;20505;-72
2022/01/27 07:23:48;;;;;;;5.53;1.80;;;26.00;64.30;;;;;;5009419;28;20071;-72
2022/01/27 07:26:15;;;;;;;7.70;2.08;;;26.00;64.40;;;;;;5021857;28;20045;-72
2022/01/27 07:28:43;;;;;;;9.77;2.30;;;26.00;64.70;;;;;;5028636;28;20118;-71
2022/01/27 07:31:10;;;;;;;9.05;3.05;;;26.10;64.80;;;;;;5032238;28;20021;-74
2022/01/27 07:33:37;;;;;;;7.82;3.72;;;26.00;65.40;;;;;;5039246;28;20049;-77
2022/01/27 07:36:05;;;;;;;10.30;9.20;;;26.00;65.20;;;;;;5034472;28;20021;-74
2022/01/27 07:38:32;;;;;;;30.48;27.42;;;26.10;65.90;;;;;;5046917;28;20051;-73
2022/01/27 07:40:59;;;;;;;13.20;5.22;;;26.10;65.00;;;;;;5044400;28;20060;-74
2022/01/27 07:43:26;;;;;;;11.25;7.43;;;26.10;64.80;;;;;;5045877;28;20441;-75
2022/01/27 07:45:53;;;;;;;6.95;2.65;;;26.20;64.70;;;;;;5051180;28;20398;-74
2022/01/27 07:48:21;;;;;;;4.18;1.85;;;26.10;64.50;;;;;;5037443;28;20452;-74
2022/01/27 07:50:48;;;;;;;6.97;1.65;;;26.20;64.80;;;;;;5051083;28;20471;-76
2022/01/27 07:53:15;;;;;;;10.82;2.13;;;26.20;64.00;;;;;;5047737;28;20064;-80
2022/01/27 07:55:42;;;;;;;10.88;2.10;;;26.20;64.20;;;;;;5051382;28;20031;-75
2022/01/27 07:58:09;;;;;;;11.32;4.78;;;26.20;64.70;;;;;;5051153;28;20036;-75
2022/01/27 08:00:37;;;;;;;6.45;3.30;;;26.20;65.00;;;;;;5050420;28;20045;-76
2022/01/27 08:03:04;;;;;;;7.68;2.25;;;26.20;64.90;;;;;;5029739;28;20497;-75
2022/01/27 08:05:31;;;;;;;8.55;2.40;;;26.00;64.80;;;;;;5031864;28;20053;-75
2022/01/27 08:07:59;;;;;;;6.22;1.80;;;26.00;64.40;;;;;;5024636;28;20095;-75
2022/01/27 08:10:26;;;;;;;9.98;2.45;;;25.80;64.90;;;;;;5051166;28;20040;-75
2022/01/27 08:12:53;;;;;;;7.80;1.90;;;25.80;64.80;;;;;;5033030;28;20033;-75
2022/01/27 08:15:22;;;;;;;7.63;1.38;;;25.80;65.50;;;;;;5051159;28;20072;-76
2022/01/27 08:17:50;;;;;;;7.88;2.08;;;25.80;65.40;;;;;;5023895;28;20030;-75
2022/01/27 08:20:17;;;;;;;6.57;1.48;;;25.80;65.70;;;;;;5013013;28;20049;-73
2022/01/27 08:22:46;;;;;;;9.48;2.03;;;25.70;65.90;;;;;;5012986;28;20052;-76
2022/01/27 08:25:14;;;;;;;7.18;1.90;;;25.70;66.20;;;;;;5050915;28;20280;-75
2022/01/27 08:27:44;;;;;;;6.72;1.80;;;25.60;66.60;;;;;;5043036;28;20030;-72
2022/01/27 08:30:15;;;;;;;9.65;2.25;;;25.50;67.10;;;;;;5042788;28;20521;-70
2022/01/27 08:32:48;;;;;;;10.23;3.15;;;25.50;67.00;;;;;;5028958;28;20192;-71
2022/01/27 08:35:18;;;;;;;8.52;3.13;;;25.50;67.50;;;;;;5026655;28;20049;-69
2022/01/27 08:37:45;;;;;;;8.20;2.83;;;25.40;67.60;;;;;;5045231;28;20057;-73
2022/01/27 08:40:14;;;;;;;10.68;4.25;;;25.50;67.50;;;;;;5050965;28;20345;-70
2022/01/27 08:42:43;;;;;;;7.55;2.20;;;25.40;67.60;;;;;;5046640;28;20516;-70
2022/01/27 08:45:15;;;;;;;8.20;2.20;;;25.40;67.50;;;;;;5042946;28;20025;-69
2022/01/27 08:47:43;;;;;;;9.60;2.15;;;25.40;67.60;;;;;;5023605;28;20512;-70
2022/01/27 08:50:12;;;;;;;9.05;2.20;;;25.30;67.80;;;;;;5020623;28;20037;-71
2022/01/27 08:52:39;;;;;;;8.75;2.13;;;25.30;68.10;;;;;;5028386;28;20033;-71
2022/01/27 08:55:07;;;;;;;7.90;4.05;;;25.30;67.90;;;;;;5015942;28;20435;-72
2022/01/27 08:57:35;;;;;;;11.02;3.78;;;25.20;68.10;;;;;;5004795;28;20456;-66
2022/01/27 09:00:02;;;;;;;13.93;3.88;;;25.20;68.10;;;;;;5049847;28;20033;-65
2022/01/27 09:02:30;;;;;;;11.38;3.72;;;25.20;67.60;;;;;;5049893;28;20060;-67
2022/01/27 09:04:57;;;;;;;10.60;2.97;;;25.20;67.60;;;;;;5050204;28;20029;-68
2022/01/27 09:07:24;;;;;;;7.10;2.47;;;25.10;68.00;;;;;;5050674;28;20099;-67
2022/01/27 09:09:51;;;;;;;10.52;2.40;;;25.10;68.20;;;;;;5045645;28;20033;-67
2022/01/27 09:12:18;;;;;;;8.23;2.25;;;25.00;68.60;;;;;;5031581;28;20373;-67
2022/01/27 09:14:46;;;;;;;6.63;2.30;;;25.00;68.80;;;;;;5012852;28;20053;-67
2022/01/27 09:17:14;;;;;;;9.30;1.90;;;25.00;68.90;;;;;;5049635;28;20037;-67
2022/01/27 09:19:42;;;;;;;13.80;4.60;;;24.90;69.10;;;;;;5028816;28;20519;-68
2022/01/27 09:22:15;;;;;;;11.38;2.15;;;25.00;69.20;;;;;;5041443;28;20336;-67
2022/01/27 09:24:59;;;;;;;7.70;2.20;;;24.90;69.40;;;;;;5053234;28;20071;-68
2022/01/27 09:27:27;;;;;;;10.45;2.83;;;24.90;69.40;;;;;;5048062;28;20036;-67
2022/01/27 09:29:54;;;;;;;9.68;2.30;;;24.90;69.80;;;;;;5053159;28;20490;-67
2022/01/27 09:32:21;;;;;;;7.53;1.88;;;24.80;70.00;;;;;;5054019;28;20045;-67
2022/01/27 09:34:48;;;;;;;7.30;1.90;;;24.80;70.20;;;;;;5053976;28;20048;-68
2022/01/27 09:37:16;;;;;;;9.98;1.90;;;24.80;70.20;;;;;;5053954;28;20033;-69
2022/01/27 09:39:44;;;;;;;9.45;2.53;;;24.80;70.40;;;;;;5036057;28;20368;-68
2022/01/27 09:42:12;;;;;;;7.88;1.92;;;24.80;70.70;;;;;;5049366;28;20034;-68
2022/01/27 09:44:42;;;;;;;12.38;3.70;;;24.80;71.00;;;;;;5046342;28;20071;-67
2022/01/27 09:47:13;;;;;;;11.35;1.80;;;24.80;71.40;;;;;;5054127;28;20055;-67
2022/01/27 09:49:51;;;;;;;8.90;2.33;;;24.80;71.60;;;;;;5053760;28;20033;-68
2022/01/27 09:52:18;;;;;;;7.70;2.10;;;24.80;71.80;;;;;;5034756;28;20021;-67
2022/01/27 09:54:45;;;;;;;6.65;1.95;;;24.80;72.30;;;;;;5046362;28;20512;-68
2022/01/27 09:57:17;;;;;;;8.13;1.95;;;24.80;72.30;;;;;;5053477;28;20037;-70
2022/01/27 09:59:45;;;;;;;7.25;2.47;;;24.70;72.50;;;;;;5053912;28;20029;-68
2022/01/27 10:02:16;;;;;;;10.07;1.92;;;24.70;72.70;;;;;;5045855;28;20419;-70
2022/01/27 10:04:50;;;;;;;9.05;2.20;;;24.80;72.50;;;;;;5046575;28;20025;-69
2022/01/27 10:07:39;;;;;;;8.93;1.73;;;24.70;72.90;;;;;;5053659;28;20116;-70
2022/01/27 10:10:12;;;;;;;9.23;2.00;;;24.70;73.00;;;;;;5038557;28;20144;-68
2022/01/27 10:12:46;;;;;;;11.32;3.22;;;24.70;73.30;;;;;;5036593;28;20028;-68
2022/01/27 10:15:18;;;;;;;10.68;2.30;;;24.70;72.70;;;;;;5053520;28;20044;-69
2022/01/27 10:18:07;;;;;;;8.85;3.45;;;24.70;72.70;;;;;;5053228;28;20509;-68
2022/01/27 10:20:38;;;;;;;8.23;2.30;;;24.60;72.50;;;;;;5032951;28;20045;-68
2022/01/27 10:23:15;;;;;;;13.65;3.20;;;24.70;72.50;;;;;;5047025;28;20356;-68
2022/01/27 10:25:50;;;;;;;8.15;2.17;;;24.60;72.40;;;;;;5053317;28;20491;-68
2022/01/27 10:28:50;;;;;;;8.35;2.10;;;24.60;72.60;;;;;;5033268;28;20049;-68
2022/01/27 10:31:19;;;;;;;9.52;2.67;;;24.60;72.80;;;;;;5037533;28;20033;-68
2022/01/27 10:33:48;;;;;;;10.48;2.22;;;24.60;73.00;;;;;;5042039;28;20124;-68
2022/01/27 10:36:25;;;;;;;8.32;1.85;;;24.60;73.10;;;;;;5043639;28;20441;-67
2022/01/27 10:38:56;;;;;;;9.65;1.90;;;24.60;73.20;;;;;;5036203;28;20546;-67
2022/01/27 10:41:27;;;;;;;9.93;1.80;;;24.60;72.90;;;;;;5031070;28;20029;-68
2022/01/27 10:44:15;;;;;;;9.13;2.20;;;24.60;72.80;;;;;;5043893;28;20036;-69
2022/01/27 10:47:11;;;;;;;6.65;1.70;;;24.60;72.90;;;;;;5045909;28;20032;-67
2022/01/27 10:49:43;;;;;;;8.65;2.00;;;24.60;72.80;;;;;;5033437;28;20022;-68
2022/01/27 10:52:18;;;;;;;11.20;2.05;;;24.50;72.80;;;;;;5042653;28;20435;-68
2022/01/27 10:55:00;;;;;;;10.00;2.22;;;24.50;72.90;;;;;;5042402;28;20085;-68
2022/01/27 10:57:28;;;;;;;13.57;2.53;;;24.50;73.30;;;;;;5005925;28;20030;-68
2022/01/27 11:00:14;;;;;;;9.73;2.40;;;24.50;73.10;;;;;;5042633;28;20438;-68
2022/01/27 11:02:56;;;;;;;9.88;1.75;;;24.50;73.10;;;;;;5004425;28;20034;-68
2022/01/27 11:05:31;;;;;;;7.85;2.13;;;24.50;73.00;;;;;;5026033;28;20361;-68
2022/01/27 11:07:58;;;;;;;9.95;2.00;;;24.50;73.10;;;;;;5034203;28;20041;-68
2022/01/27 11:10:26;;;;;;;8.45;1.90;;;24.50;73.00;;;;;;5025358;28;20030;-68
2022/01/27 11:12:53;;;;;;;12.23;2.20;;;24.50;73.10;;;;;;5047781;28;20060;-68
2022/01/27 11:15:21;;;;;;;9.27;2.20;;;24.50;73.50;;;;;;5025982;28;20048;-68
2022/01/27 11:17:49;;;;;;;6.32;1.67;;;24.50;73.70;;;;;;5049022;28;20111;-68
2022/01/27 11:27:55;;;;;;;11.93;2.05;;;24.50;73.80;;;;;;5025015;28;20029;-68
2022/01/27 11:30:58;;;;;;;4.30;1.52;;;24.50;73.70;;;;;;5002032;28;20506;-68
2022/01/27 11:33:32;;;;;;;8.52;1.90;;;24.50;73.90;;;;;;5005910;28;20068;-68
2022/01/27 11:36:06;;;;;;;12.27;1.90;;;24.50;74.20;;;;;;5034388;28;20090;-68
2022/01/27 11:38:34;;;;;;;14.80;2.40;;;24.50;74.20;;;;;;5031222;28;20025;-68
2022/01/27 11:41:01;;;;;;;11.90;2.47;;;24.50;74.20;;;;;;5016611;28;20111;-68
2022/01/27 11:43:38;;;;;;;5.63;1.88;;;24.50;74.10;;;;;;5051450;28;20032;-69
2022/01/27 11:46:18;;;;;;;12.40;2.17;;;24.50;74.60;;;;;;5035392;28;20037;-68
2022/01/27 11:48:45;;;;;;;14.55;2.30;;;24.40;74.70;;;;;;5051857;28;20037;-68
2022/01/27 11:51:14;;;;;;;12.35;2.15;;;24.50;74.80;;;;;;5031951;28;20040;-68
2022/01/27 11:53:51;;;;;;;12.60;1.92;;;24.40;75.00;;;;;;5047892;28;20049;-68
2022/01/27 11:56:27;;;;;;;10.82;2.13;;;24.50;75.00;;;;;;5034300;28;20037;-68
2022/01/27 11:59:08;;;;;;;13.55;2.28;;;24.40;75.00;;;;;;5047904;28;20411;-68
2022/01/27 12:01:36;;;;;;;11.00;2.03;;;24.40;75.10;;;;;;5044188;28;20486;-68
2022/01/27 12:04:09;;;;;;;9.60;2.25;;;24.40;75.70;;;;;;5043630;28;20052;-68
2022/01/27 12:06:37;;;;;;;7.22;1.70;;;24.40;75.60;;;;;;5051262;28;20044;-68
2022/01/27 12:09:19;;;;;;;11.82;1.90;;;24.40;75.70;;;;;;5038712;28;20053;-69
2022/01/27 12:11:51;;;;;;;10.35;2.35;;;24.40;76.00;;;;;;5050888;28;20117;-68
2022/01/27 12:14:25;;;;;;;12.93;2.22;;;24.40;76.00;;;;;;5029293;28;20045;-69
2022/01/27 12:17:10;;;;;;;8.32;1.88;;;24.40;76.30;;;;;;5036670;28;20505;-69
2022/01/27 12:19:53;;;;;;;9.02;2.03;;;24.40;76.50;;;;;;5027607;28;20063;-68
2022/01/27 12:22:24;;;;;;;6.75;1.90;;;24.30;76.60;;;;;;5048245;28;20112;-69
2022/01/27 12:25:10;;;;;;;12.05;2.28;;;24.30;76.40;;;;;;5048752;28;20502;-69
2022/01/27 12:27:37;;;;;;;7.22;1.80;;;24.30;76.30;;;;;;5029084;28;20045;-68
2022/01/27 12:30:07;;;;;;;11.07;2.05;;;24.30;76.40;;;;;;5032932;28;20037;-69
2022/01/27 12:32:34;;;;;;;7.07;2.05;;;24.40;75.90;;;;;;5029582;28;20033;-69
2022/01/27 12:35:03;;;;;;;10.30;2.15;;;24.30;76.30;;;;;;5047969;28;20056;-69
2022/01/27 12:37:38;;;;;;;10.73;2.80;;;24.30;76.20;;;;;;5049675;28;20115;-69
2022/01/27 12:40:31;;;;;;;8.48;1.70;;;24.30;76.30;;;;;;5046309;28;20029;-69
2022/01/27 12:43:03;;;;;;;9.52;2.08;;;24.30;76.60;;;;;;5045730;28;20384;-69
2022/01/27 12:45:35;;;;;;;11.25;2.40;;;24.30;76.50;;;;;;5043443;28;20026;-69
2022/01/27 12:48:08;;;;;;;10.13;2.28;;;24.30;76.50;;;;;;5050211;28;20064;-69
2022/01/27 12:50:37;;;;;;;11.65;2.50;;;24.30;76.40;;;;;;5023776;28;20473;-69
2022/01/27 12:53:14;;;;;;;10.45;2.10;;;24.30;76.50;;;;;;5026070;28;20087;-69
2022/01/27 12:55:43;;;;;;;11.65;2.30;;;24.40;76.60;;;;;;5023720;28;20077;-68
2022/01/27 12:58:18;;;;;;;8.75;2.08;;;24.30;76.60;;;;;;5039568;28;20033;-69
2022/01/27 13:00:50;;;;;;;8.43;1.83;;;24.30;76.60;;;;;;5050830;28;20044;-68
2022/01/27 13:03:17;;;;;;;9.75;2.03;;;24.30;76.80;;;;;;5047015;28;20033;-68
2022/01/27 13:05:48;;;;;;;10.15;1.88;;;24.30;77.10;;;;;;5046962;28;20040;-68
2022/01/27 13:08:17;;;;;;;9.68;1.90;;;24.30;76.70;;;;;;5050667;28;20114;-68
2022/01/27 13:10:49;;;;;;;7.63;1.77;;;24.30;77.00;;;;;;5049152;28;20119;-68
2022/01/27 13:13:30;;;;;;;11.73;2.03;;;24.30;77.00;;;;;;5049629;28;20045;-68
2022/01/27 13:16:05;;;;;;;8.77;2.10;;;24.30;77.20;;;;;;5042232;28;20067;-68
2022/01/27 13:19:00;;;;;;;14.20;2.53;;;24.30;77.20;;;;;;5050612;28;20033;-69
2022/01/27 13:21:23;;;;;;;8.63;1.70;;;24.30;77.10;;;;;;5044511;28;20447;-69
2022/01/27 13:24:15;;;;;;;12.45;3.17;;;24.30;77.20;;;;;;5046762;28;20394;-69
2022/01/27 13:26:45;;;;;;;11.10;2.03;;;24.30;77.40;;;;;;5047526;28;20044;-68
2022/01/27 13:29:13;;;;;;;8.70;2.13;;;24.30;77.40;;;;;;5050623;28;20048;-69
2022/01/27 13:31:40;;;;;;;11.77;2.40;;;24.30;77.40;;;;;;5025159;28;20622;-68
2022/01/27 13:34:08;;;;;;;9.35;1.52;;;24.30;77.40;;;;;;5049758;28;20092;-69
2022/01/27 13:36:36;;;;;;;9.77;2.40;;;24.30;77.40;;;;;;5032648;28;20025;-68
2022/01/27 13:41:40;;;;;;;10.05;1.80;;;24.30;77.70;;;;;;5024896;28;20131;-69
2022/01/27 13:44:18;;;;;;;12.23;2.47;;;24.30;77.60;;;;;;5046655;28;20091;-69
2022/01/27 13:46:57;;;;;;;8.85;1.73;;;24.30;77.60;;;;;;5050202;28;20144;-69
2022/01/27 13:49:29;;;;;;;11.93;2.53;;;24.20;77.70;;;;;;5024784;28;20503;-69
2022/01/27 13:52:17;;;;;;;13.80;2.42;;;24.30;77.50;;;;;;5027536;28;20145;-69
2022/01/27 13:54:53;;;;;;;12.10;2.35;;;24.30;77.50;;;;;;5046660;28;20131;-68
2022/01/27 13:57:25;;;;;;;6.78;1.63;;;24.30;77.60;;;;;;5043022;28;20510;-69
2022/01/27 14:00:00;;;;;;;12.10;2.22;;;24.20;77.60;;;;;;5050373;28;20037;-68
2022/01/27 14:02:31;;;;;;;9.77;2.15;;;24.30;77.10;;;;;;5050405;28;20029;-68
2022/01/27 14:05:10;;;;;;;8.27;1.77;;;24.20;77.00;;;;;;5031599;28;20108;-69
2022/01/27 14:07:39;;;;;;;9.40;1.95;;;24.30;77.10;;;;;;5042995;28;20045;-68
2022/01/27 14:10:12;;;;;;;11.27;2.30;;;24.20;77.10;;;;;;5037870;28;20032;-68
2022/01/27 14:13:00;;;;;;;13.65;2.72;;;24.20;77.30;;;;;;5049893;28;20068;-69
2022/01/27 14:15:48;;;;;;;12.18;2.20;;;24.30;77.30;;;;;;5042867;28;20185;-69
2022/01/27 14:18:29;;;;;;;7.50;1.63;;;24.20;77.50;;;;;;5045142;28;20402;-69
2022/01/27 14:21:02;;;;;;;9.35;1.83;;;24.20;77.40;;;;;;5045945;28;20056;-68
2022/01/27 14:26:30;;;;;;;9.00;2.28;;;24.20;77.20;;;;;;5048290;28;20028;-69
2022/01/27 14:28:58;;;;;;;9.57;1.80;;;24.20;77.00;;;;;;5028662;28;20026;-68
2022/01/27 14:31:25;;;;;;;6.57;1.58;;;24.20;76.80;;;;;;5053796;28;20063;-68
2022/01/27 14:33:52;;;;;;;14.70;3.15;;;24.20;76.80;;;;;;5052001;28;20052;-68
2022/01/27 14:36:22;;;;;;;13.90;3.13;;;24.20;76.80;;;;;;5035496;28;20577;-68
2022/01/27 14:38:49;;;;;;;11.93;2.60;;;24.20;76.80;;;;;;5046945;28;20044;-69
2022/01/27 14:41:17;;;;;;;7.97;1.83;;;24.10;76.60;;;;;;5005704;28;20400;-68
2022/01/27 14:43:44;;;;;;;11.25;2.22;;;24.20;76.80;;;;;;5030248;28;20561;-69
2022/01/27 14:46:22;;;;;;;9.18;1.85;;;24.20;76.70;;;;;;5033167;28;20049;-68
2022/01/27 14:48:54;;;;;;;8.68;2.00;;;24.20;77.00;;;;;;5025245;28;20131;-68
2022/01/27 14:51:21;;;;;;;7.75;1.90;;;24.20;77.00;;;;;;5053207;28;20101;-68
2022/01/27 14:53:49;;;;;;;11.35;2.08;;;24.20;77.00;;;;;;5052852;28;20093;-68
2022/01/27 14:56:16;;;;;;;9.57;1.88;;;24.20;77.10;;;;;;5052913;28;20037;-69
2022/01/27 14:58:43;;;;;;;9.15;2.00;;;24.20;77.30;;;;;;5049210;28;20044;-66
2022/01/27 15:01:10;;;;;;;11.65;2.40;;;24.20;77.50;;;;;;5052915;28;20025;-67
2022/01/27 15:03:37;;;;;;;8.80;2.35;;;24.20;77.30;;;;;;5018675;28;20045;-68
2022/01/27 15:06:05;;;;;;;7.95;1.55;;;24.10;77.30;;;;;;5052550;28;20120;-68
2022/01/27 15:08:32;;;;;;;5.50;1.77;;;24.20;77.30;;;;;;5002378;28;20123;-68
2022/01/27 15:10:59;;;;;;;16.77;2.47;;;24.20;77.30;;;;;;5049820;28;20090;-68
2022/01/27 15:13:26;;;;;;;7.50;1.95;;;24.10;77.50;;;;;;5049773;28;20029;-68
2022/01/27 18:08:19;;;;;;;24.63;4.50;;;23.60;79.10;;;;;;5049275;28;20064;-69
2022/01/27 18:10:46;;;;;;;11.73;3.08;;;23.60;79.00;;;;;;5066587;28;20052;-69
2022/01/27 18:13:16;;;;;;;12.43;3.85;;;23.60;78.90;;;;;;5073261;28;20921;-69
2022/01/27 18:15:43;;;;;;;;;;;23.60;79.00;;;;;;5074091;28;20043;-70
2022/01/27 18:18:10;;;;;;;11.15;2.83;;;23.60;79.00;;;;;;5061554;28;19915;-68
2022/01/27 18:20:38;;;;;;;12.30;2.72;;;23.50;78.90;;;;;;5054634;28;20103;-70
2022/01/27 18:23:05;;;;;;;10.60;2.47;;;23.50;78.90;;;;;;5055520;28;20607;-70
2022/01/27 18:25:32;;;;;;;8.20;1.70;;;23.50;79.10;;;;;;5067392;28;20040;-70
2022/01/27 18:28:00;;;;;;;6.43;2.08;;;23.50;79.10;;;;;;5053797;28;20025;-70
2022/01/27 18:30:27;;;;;;;9.93;2.22;;;23.50;79.20;;;;;;5053354;28;20039;-70
2022/01/27 18:32:54;;;;;;;12.23;2.08;;;23.50;79.00;;;;;;5070399;28;20082;-70
2022/01/27 18:35:21;;;;;;;10.98;1.83;;;23.50;78.90;;;;;;5073290;28;20040;-69
2022/01/27 18:37:49;;;;;;;12.45;2.20;;;23.50;79.00;;;;;;5055162;28;20095;-69
2022/01/27 18:40:16;;;;;;;10.50;2.20;;;23.50;79.00;;;;;;5037836;28;20068;-69
2022/01/27 18:42:44;;;;;;;13.07;2.15;;;23.40;79.10;;;;;;5058588;28;20083;-69
2022/01/27 18:45:14;;;;;;;8.52;2.05;;;23.40;79.10;;;;;;5072854;28;20116;-69
2022/01/27 18:47:41;;;;;;;;;;;23.40;79.00;;;;;;5058164;28;20044;-69
2022/01/27 18:50:09;;;;;;;11.82;2.42;;;23.40;79.10;;;;;;5053131;28;19905;-69
2022/01/27 18:52:37;;;;;;;10.13;2.03;;;23.40;79.00;;;;;;5053500;28;20078;-69
2022/01/27 18:55:06;;;;;;;7.68;1.88;;;23.40;78.90;;;;;;5052040;28;20040;-68
2022/01/27 18:57:33;;;;;;;12.15;2.00;;;23.30;79.00;;;;;;5034516;28;20021;-69
2022/01/27 19:00:00;;;;;;;10.32;1.98;;;23.30;79.10;;;;;;5052973;28;20029;-69
2022/01/27 19:02:27;;;;;;;8.75;2.28;;;23.30;79.00;;;;;;5063265;28;20115;-69
2022/01/27 19:04:55;;;;;;;7.15;1.85;;;23.30;79.10;;;;;;5072516;28;20041;-69
2022/01/27 19:07:22;;;;;;;9.15;2.00;;;23.30;79.10;;;;;;5067973;28;20410;-69
2022/01/27 19:09:49;;;;;;;10.05;1.88;;;23.30;78.90;;;;;;5052766;28;20037;-69
2022/01/27 19:12:16;;;;;;;9.63;1.58;;;23.30;78.90;;;;;;5046035;28;20092;-69
2022/01/27 19:14:43;;;;;;;12.55;2.17;;;23.30;78.80;;;;;;5014813;28;20041;-69
2022/01/27 19:17:11;;;;;;;7.90;1.63;;;23.30;79.00;;;;;;5032845;28;20117;-70
2022/01/27 19:19:40;;;;;;;9.52;2.22;;;23.30;78.90;;;;;;5032683;28;20036;-70
2022/01/27 19:22:07;;;;;;;7.97;1.98;;;23.30;78.80;;;;;;5025707;28;20044;-70
2022/01/27 19:24:35;;;;;;;7.50;1.65;;;23.30;78.90;;;;;;5015022;28;20081;-70
2022/01/27 19:27:04;;;;;;;9.85;1.85;;;23.30;78.80;;;;;;5032652;28;20100;-69
2022/01/27 19:29:33;;;;;;;9.32;2.05;;;23.30;78.80;;;;;;5032345;28;20487;-70
2022/01/27 19:32:04;;;;;;;7.78;1.77;;;23.30;78.90;;;;;;5032355;28;20115;-70
2022/01/27 19:34:32;;;;;;;10.32;2.08;;;23.30;78.90;;;;;;5030060;28;20076;-70
